sensor_id;sensor_type;location;lat;lon;timestamp;pressure;altitude;pressure_sealevel;temperature;humidity
75414;BME280;64758;52.122;5.404;2023-05-07T00:00:20;101856.00;;;14.42;100.00
75414;BME280;64758;52.122;5.404;2023-05-07T00:02:47;101848.13;;;14.41;100.00
75414;BME280;64758;52.122;5.404;2023-05-07T00:05:14;101855.13;;;14.42;100.00
75414;BME280;64758;52.122;5.404;2023-05-07T00:07:41;101865.41;;;14.38;100.00
75414;BME280;64758;52.122;5.404;2023-05-07T00:10:08;101864.91;;;14.35;100.00
75414;BME280;64758;52.122;5.404;2023-05-07T00:12:35;101863.00;;;14.29;100.00
75414;BME280;64758;52.122;5.404;2023-05-07T00:15:03;101861.16;;;14.29;100.00
75414;BME280;64758;52.122;5.404;2023-05-07T00:17:30;101859.50;;;14.28;100.00
75414;BME280;64758;52.122;5.404;2023-05-07T00:19:57;101859.66;;;14.27;100.00
75414;BME280;64758;52.122;5.404;2023-05-07T00:22:23;101862.34;;;14.27;100.00
75414;BME280;64758;52.122;5.404;2023-05-07T00:24:50;101866.03;;;14.26;100.00
75414;BME280;64758;52.122;5.404;2023-05-07T00:27:16;101861.41;;;14.20;100.00
75414;BME280;64758;52.122;5.404;2023-05-07T00:29:43;101853.78;;;14.17;100.00
75414;BME280;64758;52.122;5.404;2023-05-07T00:32:10;101852.13;;;14.16;100.00
75414;BME280;64758;52.122;5.404;2023-05-07T00:34:37;101854.78;;;14.16;100.00
75414;BME280;64758;52.122;5.404;2023-05-07T00:37:03;101846.28;;;14.12;100.00
75414;BME280;64758;52.122;5.404;2023-05-07T00:39:32;101839.09;;;14.13;100.00
75414;BME280;64758;52.122;5.404;2023-05-07T00:41:58;101839.47;;;14.10;100.00
75414;BME280;64758;52.122;5.404;2023-05-07T00:44:25;101836.13;;;14.08;100.00
75414;BME280;64758;52.122;5.404;2023-05-07T00:46:53;101841.13;;;14.11;100.00
75414;BME280;64758;52.122;5.404;2023-05-07T00:49:20;101836.63;;;14.11;100.00
75414;BME280;64758;52.122;5.404;2023-05-07T00:51:47;101834.75;;;14.12;100.00
75414;BME280;64758;52.122;5.404;2023-05-07T00:54:14;101834.31;;;14.08;100.00
75414;BME280;64758;52.122;5.404;2023-05-07T00:56:40;101836.34;;;14.06;100.00
75414;BME280;64758;52.122;5.404;2023-05-07T00:59:07;101839.81;;;14.07;100.00
75414;BME280;64758;52.122;5.404;2023-05-07T01:01:34;101836.91;;;14.02;100.00
75414;BME280;64758;52.122;5.404;2023-05-07T01:04:01;101839.31;;;13.97;100.00
75414;BME280;64758;52.122;5.404;2023-05-07T01:06:29;101830.28;;;13.98;100.00
75414;BME280;64758;52.122;5.404;2023-05-07T01:08:57;101829.44;;;13.98;100.00
75414;BME280;64758;52.122;5.404;2023-05-07T01:11:24;101822.63;;;13.95;100.00
75414;BME280;64758;52.122;5.404;2023-05-07T01:13:52;101841.13;;;13.97;100.00
75414;BME280;64758;52.122;5.404;2023-05-07T01:16:19;101833.31;;;13.95;100.00
75414;BME280;64758;52.122;5.404;2023-05-07T01:18:46;101828.50;;;13.91;100.00
75414;BME280;64758;52.122;5.404;2023-05-07T01:21:16;101842.88;;;13.90;100.00
75414;BME280;64758;52.122;5.404;2023-05-07T01:23:44;101834.03;;;13.89;100.00
75414;BME280;64758;52.122;5.404;2023-05-07T01:26:11;101832.56;;;13.87;100.00
75414;BME280;64758;52.122;5.404;2023-05-07T01:28:37;101836.72;;;13.89;100.00
75414;BME280;64758;52.122;5.404;2023-05-07T01:31:04;101831.38;;;13.89;100.00
75414;BME280;64758;52.122;5.404;2023-05-07T01:33:34;101847.41;;;13.89;100.00
75414;BME280;64758;52.122;5.404;2023-05-07T01:36:03;101844.09;;;13.87;100.00
75414;BME280;64758;52.122;5.404;2023-05-07T01:38:32;101836.88;;;13.88;100.00
75414;BME280;64758;52.122;5.404;2023-05-07T01:40:59;101843.88;;;13.89;100.00
75414;BME280;64758;52.122;5.404;2023-05-07T01:43:26;101834.78;;;13.83;100.00
75414;BME280;64758;52.122;5.404;2023-05-07T01:45:53;101833.41;;;13.87;100.00
75414;BME280;64758;52.122;5.404;2023-05-07T01:48:20;101844.91;;;13.88;100.00
75414;BME280;64758;52.122;5.404;2023-05-07T01:50:47;101837.09;;;13.86;100.00
75414;BME280;64758;52.122;5.404;2023-05-07T01:53:14;101845.09;;;13.86;100.00
75414;BME280;64758;52.122;5.404;2023-05-07T01:55:41;101838.25;;;13.84;100.00
75414;BME280;64758;52.122;5.404;2023-05-07T01:58:07;101835.06;;;13.88;100.00
75414;BME280;64758;52.122;5.404;2023-05-07T02:00:34;101840.41;;;13.88;100.00
75414;BME280;64758;52.122;5.404;2023-05-07T02:03:01;101842.88;;;13.90;100.00
75414;BME280;64758;52.122;5.404;2023-05-07T02:05:28;101840.84;;;13.92;100.00
75414;BME280;64758;52.122;5.404;2023-05-07T02:07:54;101833.69;;;13.92;100.00
75414;BME280;64758;52.122;5.404;2023-05-07T02:10:21;101838.00;;;13.93;100.00
75414;BME280;64758;52.122;5.404;2023-05-07T02:12:47;101850.72;;;13.91;100.00
75414;BME280;64758;52.122;5.404;2023-05-07T02:15:14;101842.41;;;13.86;100.00
75414;BME280;64758;52.122;5.404;2023-05-07T02:18:02;101842.41;;;13.86;100.00
75414;BME280;64758;52.122;5.404;2023-05-07T02:20:29;101846.75;;;13.87;100.00
75414;BME280;64758;52.122;5.404;2023-05-07T02:22:56;101835.78;;;13.82;100.00
75414;BME280;64758;52.122;5.404;2023-05-07T02:25:22;101838.25;;;13.84;100.00
75414;BME280;64758;52.122;5.404;2023-05-07T02:27:49;101832.56;;;13.87;100.00
75414;BME280;64758;52.122;5.404;2023-05-07T02:30:15;101838.75;;;13.87;100.00
75414;BME280;64758;52.122;5.404;2023-05-07T02:32:42;101827.56;;;13.84;100.00
75414;BME280;64758;52.122;5.404;2023-05-07T02:35:09;101833.19;;;13.89;100.00
75414;BME280;64758;52.122;5.404;2023-05-07T02:37:35;101845.75;;;13.88;100.00
75414;BME280;64758;52.122;5.404;2023-05-07T02:40:02;101839.38;;;13.89;100.00
75414;BME280;64758;52.122;5.404;2023-05-07T02:42:30;101833.03;;;13.90;100.00
75414;BME280;64758;52.122;5.404;2023-05-07T02:44:57;101836.72;;;13.89;100.00
75414;BME280;64758;52.122;5.404;2023-05-07T02:47:24;101834.41;;;13.86;100.00
75414;BME280;64758;52.122;5.404;2023-05-07T02:49:54;101827.84;;;13.74;100.00
75414;BME280;64758;52.122;5.404;2023-05-07T02:52:21;101827.00;;;13.59;100.00
75414;BME280;64758;52.122;5.404;2023-05-07T02:54:48;101825.72;;;13.55;100.00
75414;BME280;64758;52.122;5.404;2023-05-07T02:57:14;101835.66;;;13.61;100.00
75414;BME280;64758;52.122;5.404;2023-05-07T02:59:42;101822.13;;;13.63;100.00
75414;BME280;64758;52.122;5.404;2023-05-07T03:02:08;101834.44;;;13.64;100.00
75414;BME280;64758;52.122;5.404;2023-05-07T03:04:35;101839.16;;;13.62;100.00
75414;BME280;64758;52.122;5.404;2023-05-07T03:07:02;101834.44;;;13.64;100.00
75414;BME280;64758;52.122;5.404;2023-05-07T03:09:28;101826.94;;;13.67;100.00
75414;BME280;64758;52.122;5.404;2023-05-07T03:11:56;101836.22;;;13.71;100.00
75414;BME280;64758;52.122;5.404;2023-05-07T03:14:22;101834.00;;;13.75;100.00
75414;BME280;64758;52.122;5.404;2023-05-07T03:16:49;101830.53;;;13.74;100.00
75414;BME280;64758;52.122;5.404;2023-05-07T03:19:16;101832.44;;;13.66;100.00
75414;BME280;64758;52.122;5.404;2023-05-07T03:21:43;101824.34;;;13.59;100.00
75414;BME280;64758;52.122;5.404;2023-05-07T03:24:09;101822.03;;;13.56;100.00
75414;BME280;64758;52.122;5.404;2023-05-07T03:26:36;101827.16;;;13.58;100.00
75414;BME280;64758;52.122;5.404;2023-05-07T03:29:02;101824.22;;;13.53;100.00
75414;BME280;64758;52.122;5.404;2023-05-07T03:31:29;101832.41;;;13.51;100.00
75414;BME280;64758;52.122;5.404;2023-05-07T03:33:57;101829.75;;;13.51;100.00
75414;BME280;64758;52.122;5.404;2023-05-07T03:36:24;101832.88;;;13.55;100.00
75414;BME280;64758;52.122;5.404;2023-05-07T03:38:53;101826.00;;;13.60;100.00
75414;BME280;64758;52.122;5.404;2023-05-07T03:41:19;101834.16;;;13.59;100.00
75414;BME280;64758;52.122;5.404;2023-05-07T03:43:46;101825.41;;;13.50;100.00
75414;BME280;64758;52.122;5.404;2023-05-07T03:46:13;101837.91;;;13.50;100.00
75414;BME280;64758;52.122;5.404;2023-05-07T03:48:39;101841.06;;;13.53;100.00
75414;BME280;64758;52.122;5.404;2023-05-07T03:51:06;101827.06;;;13.51;100.00
75414;BME280;64758;52.122;5.404;2023-05-07T03:53:33;101840.44;;;13.51;100.00
75414;BME280;64758;52.122;5.404;2023-05-07T03:55:59;101839.88;;;13.56;100.00
75414;BME280;64758;52.122;5.404;2023-05-07T03:58:26;101830.03;;;13.56;100.00
75414;BME280;64758;52.122;5.404;2023-05-07T04:00:52;101835.81;;;13.60;100.00
75414;BME280;64758;52.122;5.404;2023-05-07T04:03:19;101840.72;;;13.56;100.00
75414;BME280;64758;52.122;5.404;2023-05-07T04:05:46;101837.84;;;13.58;100.00
75414;BME280;64758;52.122;5.404;2023-05-07T04:08:13;101847.72;;;13.57;100.00
75414;BME280;64758;52.122;5.404;2023-05-07T04:10:39;101836.47;;;13.62;100.00
75414;BME280;64758;52.122;5.404;2023-05-07T04:13:06;101841.28;;;13.66;100.00
75414;BME280;64758;52.122;5.404;2023-05-07T04:15:33;101846.25;;;13.69;100.00
75414;BME280;64758;52.122;5.404;2023-05-07T04:17:59;101854.28;;;13.69;100.00
75414;BME280;64758;52.122;5.404;2023-05-07T04:20:26;101851.97;;;13.66;100.00
75414;BME280;64758;52.122;5.404;2023-05-07T04:22:53;101845.63;;;13.67;100.00
75414;BME280;64758;52.122;5.404;2023-05-07T04:25:19;101853.91;;;13.72;100.00
75414;BME280;64758;52.122;5.404;2023-05-07T04:27:46;101859.06;;;13.74;100.00
75414;BME280;64758;52.122;5.404;2023-05-07T04:30:12;101842.38;;;13.72;100.00
75414;BME280;64758;52.122;5.404;2023-05-07T04:32:40;101843.41;;;13.71;100.00
75414;BME280;64758;52.122;5.404;2023-05-07T04:35:06;101850.59;;;13.70;100.00
75414;BME280;64758;52.122;5.404;2023-05-07T04:37:33;101847.28;;;13.68;100.00
75414;BME280;64758;52.122;5.404;2023-05-07T04:40:00;101854.06;;;13.71;100.00
75414;BME280;64758;52.122;5.404;2023-05-07T04:42:26;101858.25;;;13.73;100.00
75414;BME280;64758;52.122;5.404;2023-05-07T04:44:53;101844.59;;;13.68;100.00
75414;BME280;64758;52.122;5.404;2023-05-07T04:47:20;101853.06;;;13.72;100.00
75414;BME280;64758;52.122;5.404;2023-05-07T04:49:47;101849.59;;;13.71;100.00
75414;BME280;64758;52.122;5.404;2023-05-07T04:52:13;101860.91;;;13.73;100.00
75414;BME280;64758;52.122;5.404;2023-05-07T04:54:40;101859.78;;;13.68;100.00
75414;BME280;64758;52.122;5.404;2023-05-07T04:57:06;101861.00;;;13.65;100.00
75414;BME280;64758;52.122;5.404;2023-05-07T04:59:33;101873.78;;;13.70;100.00
75414;BME280;64758;52.122;5.404;2023-05-07T05:01:59;101867.25;;;13.72;100.00
75414;BME280;64758;52.122;5.404;2023-05-07T05:04:27;101868.06;;;13.73;100.00
75414;BME280;64758;52.122;5.404;2023-05-07T05:06:53;101868.94;;;13.73;100.00
75414;BME280;64758;52.122;5.404;2023-05-07T05:09:20;101875.56;;;13.77;100.00
75414;BME280;64758;52.122;5.404;2023-05-07T05:11:46;101869.38;;;13.77;100.00
75414;BME280;64758;52.122;5.404;2023-05-07T05:14:13;101871.03;;;13.78;100.00
75414;BME280;64758;52.122;5.404;2023-05-07T05:16:39;101875.19;;;13.80;100.00
75414;BME280;64758;52.122;5.404;2023-05-07T05:19:06;101871.69;;;13.80;100.00
75414;BME280;64758;52.122;5.404;2023-05-07T05:21:33;101876.00;;;13.81;100.00
75414;BME280;64758;52.122;5.404;2023-05-07T05:23:59;101883.00;;;13.82;100.00
75414;BME280;64758;52.122;5.404;2023-05-07T05:26:26;101884.88;;;13.81;100.00
75414;BME280;64758;52.122;5.404;2023-05-07T05:28:53;101874.00;;;13.83;100.00
75414;BME280;64758;52.122;5.404;2023-05-07T05:31:19;101876.94;;;13.88;100.00
75414;BME280;64758;52.122;5.404;2023-05-07T05:33:46;101886.91;;;13.94;100.00
75414;BME280;64758;52.122;5.404;2023-05-07T05:36:12;101882.41;;;13.94;100.00
75414;BME280;64758;52.122;5.404;2023-05-07T05:38:40;101889.56;;;13.94;100.00
75414;BME280;64758;52.122;5.404;2023-05-07T05:41:06;101890.41;;;13.94;100.00
75414;BME280;64758;52.122;5.404;2023-05-07T05:43:33;101893.53;;;13.98;100.00
75414;BME280;64758;52.122;5.404;2023-05-07T05:45:59;101897.06;;;13.98;100.00
75414;BME280;64758;52.122;5.404;2023-05-07T05:48:28;101899.97;;;14.03;100.00
75414;BME280;64758;52.122;5.404;2023-05-07T05:50:55;101908.94;;;14.10;100.00
75414;BME280;64758;52.122;5.404;2023-05-07T05:53:22;101903.41;;;14.11;100.00
75414;BME280;64758;52.122;5.404;2023-05-07T05:55:48;101906.75;;;14.13;100.00
75414;BME280;64758;52.122;5.404;2023-05-07T05:58:15;101909.53;;;14.20;100.00
75414;BME280;64758;52.122;5.404;2023-05-07T06:00:42;101905.47;;;14.24;100.00
75414;BME280;64758;52.122;5.404;2023-05-07T06:03:09;101913.13;;;14.27;100.00
75414;BME280;64758;52.122;5.404;2023-05-07T06:05:36;101918.75;;;14.32;100.00
75414;BME280;64758;52.122;5.404;2023-05-07T06:08:03;101915.06;;;14.33;100.00
75414;BME280;64758;52.122;5.404;2023-05-07T06:10:30;101915.25;;;14.31;100.00
75414;BME280;64758;52.122;5.404;2023-05-07T06:12:56;101927.41;;;14.34;100.00
75414;BME280;64758;52.122;5.404;2023-05-07T06:15:23;101930.94;;;14.34;100.00
75414;BME280;64758;52.122;5.404;2023-05-07T06:17:50;101914.25;;;14.32;100.00
75414;BME280;64758;52.122;5.404;2023-05-07T06:20:18;101924.38;;;14.37;100.00
75414;BME280;64758;52.122;5.404;2023-05-07T06:22:45;101929.34;;;14.40;100.00
75414;BME280;64758;52.122;5.404;2023-05-07T06:25:12;101923.00;;;14.41;100.00
75414;BME280;64758;52.122;5.404;2023-05-07T06:27:38;101912.38;;;14.33;100.00
75414;BME280;64758;52.122;5.404;2023-05-07T06:30:06;101920.03;;;14.36;100.00
75414;BME280;64758;52.122;5.404;2023-05-07T06:32:33;101923.34;;;14.38;100.00
75414;BME280;64758;52.122;5.404;2023-05-07T06:35:00;101920.16;;;14.42;100.00
75414;BME280;64758;52.122;5.404;2023-05-07T06:37:26;101918.94;;;14.45;100.00
75414;BME280;64758;52.122;5.404;2023-05-07T06:39:53;101918.13;;;14.44;100.00
75414;BME280;64758;52.122;5.404;2023-05-07T06:42:20;101926.78;;;14.46;100.00
75414;BME280;64758;52.122;5.404;2023-05-07T06:44:46;101934.59;;;14.48;100.00
75414;BME280;64758;52.122;5.404;2023-05-07T06:47:13;101928.06;;;14.50;100.00
75414;BME280;64758;52.122;5.404;2023-05-07T06:49:41;101927.22;;;14.50;100.00
75414;BME280;64758;52.122;5.404;2023-05-07T06:52:08;101923.38;;;14.52;100.00
75414;BME280;64758;52.122;5.404;2023-05-07T06:54:35;101922.53;;;14.52;100.00
75414;BME280;64758;52.122;5.404;2023-05-07T06:57:01;101921.50;;;14.53;100.00
75414;BME280;64758;52.122;5.404;2023-05-07T06:59:28;101930.81;;;14.57;100.00
75414;BME280;64758;52.122;5.404;2023-05-07T07:01:54;101927.78;;;14.60;100.00
75414;BME280;64758;52.122;5.404;2023-05-07T07:04:21;101922.25;;;14.61;100.00
75414;BME280;64758;52.122;5.404;2023-05-07T07:06:49;101929.34;;;14.69;100.00
75414;BME280;64758;52.122;5.404;2023-05-07T07:09:16;101928.31;;;14.70;100.00
75414;BME280;64758;52.122;5.404;2023-05-07T07:11:43;101919.38;;;14.77;100.00
75414;BME280;64758;52.122;5.404;2023-05-07T07:14:09;101921.59;;;14.88;100.00
75414;BME280;64758;52.122;5.404;2023-05-07T07:16:36;101936.13;;;15.00;100.00
75414;BME280;64758;52.122;5.404;2023-05-07T07:19:03;101931.22;;;15.04;100.00
75414;BME280;64758;52.122;5.404;2023-05-07T07:21:30;101927.16;;;15.08;100.00
75414;BME280;64758;52.122;5.404;2023-05-07T07:23:57;101926.03;;;15.17;100.00
75414;BME280;64758;52.122;5.404;2023-05-07T07:26:24;101932.47;;;15.22;100.00
75414;BME280;64758;52.122;5.404;2023-05-07T07:28:52;101927.94;;;15.23;100.00
75414;BME280;64758;52.122;5.404;2023-05-07T07:31:18;101914.69;;;15.29;100.00
75414;BME280;64758;52.122;5.404;2023-05-07T07:33:45;101918.69;;;15.39;100.00
75414;BME280;64758;52.122;5.404;2023-05-07T07:36:11;101930.16;;;15.54;100.00
75414;BME280;64758;52.122;5.404;2023-05-07T07:38:38;101939.34;;;15.66;100.00
75414;BME280;64758;52.122;5.404;2023-05-07T07:41:04;101940.47;;;15.78;100.00
75414;BME280;64758;52.122;5.404;2023-05-07T07:43:31;101935.31;;;15.77;100.00
75414;BME280;64758;52.122;5.404;2023-05-07T07:45:57;101942.94;;;15.80;100.00
75414;BME280;64758;52.122;5.404;2023-05-07T07:48:24;101935.81;;;15.87;100.00
75414;BME280;64758;52.122;5.404;2023-05-07T07:50:51;101930.75;;;15.98;100.00
75414;BME280;64758;52.122;5.404;2023-05-07T07:53:17;101940.94;;;16.09;100.00
75414;BME280;64758;52.122;5.404;2023-05-07T07:55:44;101940.16;;;16.15;100.00
75414;BME280;64758;52.122;5.404;2023-05-07T07:58:11;101944.34;;;16.24;100.00
75414;BME280;64758;52.122;5.404;2023-05-07T08:00:38;101946.81;;;16.26;100.00
75414;BME280;64758;52.122;5.404;2023-05-07T08:03:04;101944.94;;;16.20;100.00
75414;BME280;64758;52.122;5.404;2023-05-07T08:05:33;101944.75;;;16.21;100.00
75414;BME280;64758;52.122;5.404;2023-05-07T08:07:59;101946.41;;;16.22;100.00
75414;BME280;64758;52.122;5.404;2023-05-07T08:10:26;101953.84;;;16.27;100.00
75414;BME280;64758;52.122;5.404;2023-05-07T08:12:53;101947.47;;;16.28;100.00
75414;BME280;64758;52.122;5.404;2023-05-07T08:15:20;101959.84;;;16.29;100.00
75414;BME280;64758;52.122;5.404;2023-05-07T08:17:46;101959.03;;;16.28;100.00
75414;BME280;64758;52.122;5.404;2023-05-07T08:20:13;101953.03;;;16.26;100.00
75414;BME280;64758;52.122;5.404;2023-05-07T08:22:40;101954.22;;;16.17;100.00
75414;BME280;64758;52.122;5.404;2023-05-07T08:25:07;101955.22;;;16.16;100.00
75414;BME280;64758;52.122;5.404;2023-05-07T08:27:34;101952.88;;;16.07;100.00
75414;BME280;64758;52.122;5.404;2023-05-07T08:30:01;101952.69;;;16.08;100.00
75414;BME280;64758;52.122;5.404;2023-05-07T08:32:27;101952.34;;;16.18;100.00
75414;BME280;64758;52.122;5.404;2023-05-07T08:34:54;101954.22;;;16.17;100.00
75414;BME280;64758;52.122;5.404;2023-05-07T08:37:21;101953.44;;;16.23;100.00
75414;BME280;64758;52.122;5.404;2023-05-07T08:39:47;101960.47;;;16.31;100.00
75414;BME280;64758;52.122;5.404;2023-05-07T08:42:16;101964.81;;;16.32;100.00
75414;BME280;64758;52.122;5.404;2023-05-07T08:44:46;101954.19;;;16.38;100.00
75414;BME280;64758;52.122;5.404;2023-05-07T08:47:16;101957.72;;;16.45;100.00
75414;BME280;64758;52.122;5.404;2023-05-07T08:49:42;101958.38;;;16.47;100.00
75414;BME280;64758;52.122;5.404;2023-05-07T08:52:09;101963.34;;;16.50;100.00
75414;BME280;64758;52.122;5.404;2023-05-07T08:54:37;101957.97;;;16.50;100.00
75414;BME280;64758;52.122;5.404;2023-05-07T08:57:04;101951.19;;;16.54;100.00
75414;BME280;64758;52.122;5.404;2023-05-07T08:59:31;101964.00;;;16.59;100.00
75414;BME280;64758;52.122;5.404;2023-05-07T09:01:57;101958.22;;;16.62;100.00
75414;BME280;64758;52.122;5.404;2023-05-07T09:04:24;101959.88;;;16.56;100.00
75414;BME280;64758;52.122;5.404;2023-05-07T09:06:51;101954.06;;;16.59;100.00
75414;BME280;64758;52.122;5.404;2023-05-07T09:09:18;101951.19;;;16.54;100.00
75414;BME280;64758;52.122;5.404;2023-05-07T09:11:47;101952.41;;;16.58;100.00
75414;BME280;64758;52.122;5.404;2023-05-07T09:14:14;101953.25;;;16.59;100.00
75414;BME280;64758;52.122;5.404;2023-05-07T09:16:40;101951.81;;;16.56;100.00
75414;BME280;64758;52.122;5.404;2023-05-07T09:19:07;101952.88;;;16.62;100.00
75414;BME280;64758;52.122;5.404;2023-05-07T09:21:35;101957.44;;;16.67;100.00
75414;BME280;64758;52.122;5.404;2023-05-07T09:24:01;101956.19;;;16.63;100.00
75414;BME280;64758;52.122;5.404;2023-05-07T09:26:28;101954.72;;;16.61;100.00
75414;BME280;64758;52.122;5.404;2023-05-07T09:28:55;101959.03;;;16.62;100.00
75414;BME280;64758;52.122;5.404;2023-05-07T09:31:21;101968.19;;;16.67;100.00
75414;BME280;64758;52.122;5.404;2023-05-07T09:33:50;101952.63;;;16.57;100.00
75414;BME280;64758;52.122;5.404;2023-05-07T09:36:17;101972.59;;;16.48;100.00
75414;BME280;64758;52.122;5.404;2023-05-07T09:38:45;101962.31;;;16.51;100.00
75414;BME280;64758;52.122;5.404;2023-05-07T09:41:12;101967.91;;;16.56;100.00
75414;BME280;64758;52.122;5.404;2023-05-07T09:43:40;101959.63;;;16.51;100.00
75414;BME280;64758;52.122;5.404;2023-05-07T09:46:14;101965.84;;;16.58;100.00
75414;BME280;64758;52.122;5.404;2023-05-07T09:48:43;101967.31;;;16.67;100.00
75414;BME280;64758;52.122;5.404;2023-05-07T09:51:22;101960.16;;;16.74;100.00
75414;BME280;64758;52.122;5.404;2023-05-07T09:53:50;101965.91;;;16.71;100.00
75414;BME280;64758;52.122;5.404;2023-05-07T09:56:19;101970.69;;;16.75;100.00
75414;BME280;64758;52.122;5.404;2023-05-07T09:58:46;101970.53;;;16.83;100.00
75414;BME280;64758;52.122;5.404;2023-05-07T10:01:13;101976.53;;;16.85;100.00
75414;BME280;64758;52.122;5.404;2023-05-07T10:03:41;101973.44;;;16.88;100.00
75414;BME280;64758;52.122;5.404;2023-05-07T10:06:09;101979.22;;;16.92;100.00
75414;BME280;64758;52.122;5.404;2023-05-07T10:08:37;101977.00;;;17.02;100.00
75414;BME280;64758;52.122;5.404;2023-05-07T10:11:04;101986.53;;;17.04;100.00
75414;BME280;64758;52.122;5.404;2023-05-07T10:13:35;101978.31;;;17.19;100.00
75414;BME280;64758;52.122;5.404;2023-05-07T10:16:04;101973.16;;;17.24;100.00
75414;BME280;64758;52.122;5.404;2023-05-07T10:18:31;101973.59;;;17.27;100.00
75414;BME280;64758;52.122;5.404;2023-05-07T10:21:07;101982.06;;;17.31;100.00
75414;BME280;64758;52.122;5.404;2023-05-07T10:23:34;101983.56;;;17.33;100.00
75414;BME280;64758;52.122;5.404;2023-05-07T10:26:04;101990.81;;;17.39;100.00
75414;BME280;64758;52.122;5.404;2023-05-07T10:28:37;101975.13;;;17.43;100.00
75414;BME280;64758;52.122;5.404;2023-05-07T10:31:18;101980.72;;;17.48;99.99
75414;BME280;64758;52.122;5.404;2023-05-07T10:33:51;101982.22;;;17.63;100.00
75414;BME280;64758;52.122;5.404;2023-05-07T10:36:19;101979.09;;;17.73;99.84
75414;BME280;64758;52.122;5.404;2023-05-07T10:38:47;101978.72;;;17.89;100.00
75414;BME280;64758;52.122;5.404;2023-05-07T10:41:14;101977.03;;;17.94;98.20
75414;BME280;64758;52.122;5.404;2023-05-07T10:43:44;101976.44;;;18.11;100.00
75414;BME280;64758;52.122;5.404;2023-05-07T10:46:19;101977.28;;;18.31;98.03
75414;BME280;64758;52.122;5.404;2023-05-07T10:49:12;101975.22;;;18.46;92.97
75414;BME280;64758;52.122;5.404;2023-05-07T10:51:38;101973.06;;;18.68;98.54
75414;BME280;64758;52.122;5.404;2023-05-07T10:56:36;101970.72;;;18.91;91.32
75414;BME280;64758;52.122;5.404;2023-05-07T11:02:03;101975.31;;;18.90;93.75
75414;BME280;64758;52.122;5.404;2023-05-07T11:04:30;101970.91;;;19.02;93.12
75414;BME280;64758;52.122;5.404;2023-05-07T11:17:33;101978.00;;;18.90;92.91
75414;BME280;64758;52.122;5.404;2023-05-07T11:20:03;101978.84;;;18.84;93.13
75414;BME280;64758;52.122;5.404;2023-05-07T11:25:01;101974.25;;;18.91;89.42
75414;BME280;64758;52.122;5.404;2023-05-07T11:27:29;101984.56;;;19.01;88.49
75414;BME280;64758;52.122;5.404;2023-05-07T11:29:56;101978.38;;;19.00;88.74
75414;BME280;64758;52.122;5.404;2023-05-07T11:32:29;101977.09;;;19.03;87.96
75414;BME280;64758;52.122;5.404;2023-05-07T11:34:57;101973.53;;;19.15;91.53
75414;BME280;64758;52.122;5.404;2023-05-07T11:37:25;101976.34;;;19.33;90.14
75414;BME280;64758;52.122;5.404;2023-05-07T11:40:06;101975.00;;;19.55;89.46
75414;BME280;64758;52.122;5.404;2023-05-07T11:42:36;101979.69;;;19.66;84.72
75414;BME280;64758;52.122;5.404;2023-05-07T11:45:07;101974.38;;;19.84;84.21
75414;BME280;64758;52.122;5.404;2023-05-07T11:47:35;101983.25;;;19.91;86.65
75414;BME280;64758;52.122;5.404;2023-05-07T11:50:07;101979.47;;;19.98;84.99
75414;BME280;64758;52.122;5.404;2023-05-07T11:52:34;101973.16;;;20.11;86.97
75414;BME280;64758;52.122;5.404;2023-05-07T11:55:01;101973.22;;;19.98;88.15
75414;BME280;64758;52.122;5.404;2023-05-07T11:57:29;101979.75;;;19.90;86.02
75414;BME280;64758;52.122;5.404;2023-05-07T11:59:57;101978.09;;;19.89;87.25
75414;BME280;64758;52.122;5.404;2023-05-07T12:02:25;101978.28;;;19.88;86.11
75414;BME280;64758;52.122;5.404;2023-05-07T12:04:52;101973.31;;;19.91;88.12
75414;BME280;64758;52.122;5.404;2023-05-07T12:07:19;101983.75;;;19.81;86.95
75414;BME280;64758;52.122;5.404;2023-05-07T12:09:47;101979.34;;;19.87;84.65
75414;BME280;64758;52.122;5.404;2023-05-07T12:12:14;101968.66;;;20.05;86.52
75414;BME280;64758;52.122;5.404;2023-05-07T12:14:45;101982.03;;;20.18;84.99
75414;BME280;64758;52.122;5.404;2023-05-07T12:17:13;101976.59;;;20.42;89.46
75414;BME280;64758;52.122;5.404;2023-05-07T12:19:42;101966.53;;;20.73;85.86
75414;BME280;64758;52.122;5.404;2023-05-07T12:22:11;101974.34;;;20.81;87.05
75414;BME280;64758;52.122;5.404;2023-05-07T12:24:49;101973.88;;;20.66;85.03
75414;BME280;64758;52.122;5.404;2023-05-07T12:27:17;101971.63;;;20.63;82.44
75414;BME280;64758;52.122;5.404;2023-05-07T12:29:46;101976.13;;;20.69;81.68
75414;BME280;64758;52.122;5.404;2023-05-07T12:32:15;101976.31;;;20.68;82.05
75414;BME280;64758;52.122;5.404;2023-05-07T12:34:43;101975.06;;;20.70;83.92
75414;BME280;64758;52.122;5.404;2023-05-07T12:37:11;101959.69;;;20.71;81.65
75414;BME280;64758;52.122;5.404;2023-05-07T12:39:44;101977.22;;;20.86;83.01
75414;BME280;64758;52.122;5.404;2023-05-07T12:42:19;101978.09;;;21.16;80.04
75414;BME280;64758;52.122;5.404;2023-05-07T12:44:46;101964.53;;;21.34;81.64
75414;BME280;64758;52.122;5.404;2023-05-07T12:47:14;101977.03;;;21.17;80.09
75414;BME280;64758;52.122;5.404;2023-05-07T12:49:43;101968.19;;;21.10;79.54
75414;BME280;64758;52.122;5.404;2023-05-07T12:52:11;101972.41;;;20.88;76.51
75414;BME280;64758;52.122;5.404;2023-05-07T12:54:39;101973.31;;;21.00;79.86
75414;BME280;64758;52.122;5.404;2023-05-07T12:57:07;101972.09;;;20.96;76.28
75414;BME280;64758;52.122;5.404;2023-05-07T12:59:41;101978.00;;;21.05;76.65